Time;durP1;ratioP1;P1;durP2;ratioP2;P2;SDS_P1;SDS_P2;PMS_P1;PMS_P2;Temp;Humidity;BMP_temperature;BMP_pressure;BME280_temperature;BME280_humidity;BME280_pressure;Samples;Min_cycle;Max_cycle;Signal;HPM_P1;HPM_P2
2023/11/05 00:00:57;;;;;;;17.88;3.83;;;12.40;99.90;;;;;;4265236;27;20047;-57
2023/11/05 00:02:59;;;;;;;14.50;3.88;;;12.30;99.90;;;;;;4265938;27;20115;-58
2023/11/05 00:05:01;;;;;;;19.00;3.47;;;12.40;99.90;;;;;;4265448;27;20104;-57
2023/11/05 00:07:03;;;;;;;13.68;3.17;;;12.40;99.90;;;;;;4247525;27;20039;-58
2023/11/05 00:09:06;;;;;;;17.75;3.83;;;12.50;99.90;;;;;;4247047;27;20051;-57
2023/11/05 00:11:09;;;;;;;12.23;2.72;;;12.50;99.90;;;;;;4265643;27;20146;-57
2023/11/05 00:13:11;;;;;;;13.82;3.72;;;12.60;99.90;;;;;;4265583;27;20042;-58
2023/11/05 00:15:13;;;;;;;17.50;3.95;;;12.50;99.90;;;;;;4265121;27;20050;-58
2023/11/05 00:17:15;;;;;;;15.18;3.95;;;12.60;99.90;;;;;;4247107;27;20074;-57
2023/11/05 00:19:17;;;;;;;14.50;3.03;;;12.50;99.90;;;;;;4265015;27;20113;-58
2023/11/05 00:21:19;;;;;;;11.27;3.08;;;12.60;99.90;;;;;;4265204;27;20039;-58
2023/11/05 00:23:22;;;;;;;16.60;3.90;;;12.50;99.90;;;;;;4265045;27;20511;-57
2023/11/05 00:25:24;;;;;;;15.82;3.78;;;12.50;99.90;;;;;;4264613;27;20468;-57
2023/11/05 00:27:27;;;;;;;18.45;4.15;;;12.50;99.90;;;;;;4265332;27;20411;-57
2023/11/05 00:29:30;;;;;;;18.08;4.07;;;12.50;99.90;;;;;;4264749;27;20069;-58
2023/11/05 00:31:32;;;;;;;11.10;3.05;;;12.60;99.90;;;;;;4265124;27;20078;-57
2023/11/05 00:33:34;;;;;;;12.52;3.35;;;12.50;99.90;;;;;;4265533;27;20046;-57
2023/11/05 00:35:36;;;;;;;11.27;2.90;;;12.60;99.90;;;;;;4265402;27;20050;-58
2023/11/05 00:37:39;;;;;;;10.98;2.83;;;12.60;99.90;;;;;;4265007;27;20403;-57
2023/11/05 00:39:42;;;;;;;11.88;3.15;;;12.60;99.90;;;;;;4265026;27;20047;-57
2023/11/05 00:41:45;;;;;;;11.15;3.13;;;12.60;99.90;;;;;;4265012;27;20078;-57
2023/11/05 00:43:48;;;;;;;15.48;3.88;;;12.60;99.90;;;;;;4264698;27;20042;-58
2023/11/05 00:45:50;;;;;;;15.63;3.25;;;12.60;99.90;;;;;;4264915;27;20053;-58
2023/11/05 00:47:52;;;;;;;15.43;3.47;;;12.60;99.90;;;;;;4246790;27;20047;-58
2023/11/05 00:49:55;;;;;;;12.82;3.47;;;12.60;99.90;;;;;;4265162;27;20160;-59
2023/11/05 00:51:57;;;;;;;13.95;3.15;;;12.60;99.90;;;;;;4265297;27;20125;-57
2023/11/05 00:54:03;;;;;;;12.63;3.47;;;12.60;99.90;;;;;;4264930;27;20047;-58
2023/11/05 00:56:06;;;;;;;16.38;3.55;;;12.50;99.90;;;;;;4264953;27;20539;-58
2023/11/05 00:58:08;;;;;;;12.60;3.28;;;12.50;99.90;;;;;;4264797;27;20276;-58
2023/11/05 01:00:12;;;;;;;12.93;3.05;;;12.50;99.90;;;;;;4264872;27;20051;-57
2023/11/05 01:02:26;;;;;;;11.65;2.80;;;12.40;99.90;;;;;;4265123;27;20457;-58
2023/11/05 01:04:28;;;;;;;11.95;3.38;;;12.40;99.90;;;;;;4246461;28;20050;-58
2023/11/05 01:06:31;;;;;;;16.02;3.60;;;12.40;99.90;;;;;;4246945;28;20412;-57
2023/11/05 01:08:33;;;;;;;11.95;2.65;;;12.40;99.90;;;;;;4265125;27;20070;-58
2023/11/05 01:10:35;;;;;;;12.93;2.63;;;12.40;99.90;;;;;;4265184;27;20095;-58
2023/11/05 01:12:37;;;;;;;14.50;2.97;;;12.30;99.90;;;;;;4264698;27;20449;-57
2023/11/05 01:14:39;;;;;;;11.35;2.42;;;12.30;99.90;;;;;;4265005;27;20396;-58
2023/11/05 01:16:42;;;;;;;14.18;3.97;;;12.30;99.90;;;;;;4265000;27;20480;-58
2023/11/05 01:18:44;;;;;;;11.70;3.00;;;12.30;99.90;;;;;;4264373;27;20043;-57
2023/11/05 01:20:46;;;;;;;14.70;3.15;;;12.20;99.90;;;;;;4264706;27;20162;-57
2023/11/05 01:22:49;;;;;;;11.38;2.78;;;12.20;99.90;;;;;;4264640;27;20411;-57
2023/11/05 01:24:51;;;;;;;12.50;2.97;;;12.20;99.90;;;;;;4264750;27;20411;-57
2023/11/05 01:26:53;;;;;;;12.75;2.75;;;12.10;99.90;;;;;;4264695;27;20135;-57
2023/11/05 01:28:56;;;;;;;10.80;2.67;;;12.20;99.90;;;;;;4264731;27;20046;-58
2023/11/05 01:30:59;;;;;;;12.23;2.72;;;12.20;99.90;;;;;;4264445;27;20099;-58
2023/11/05 01:33:02;;;;;;;12.80;2.85;;;12.10;99.90;;;;;;4264607;27;20043;-58
2023/11/05 01:35:06;;;;;;;10.75;2.58;;;12.10;99.90;;;;;;4264920;27;20039;-58
2023/11/05 01:37:08;;;;;;;14.23;2.63;;;12.10;99.90;;;;;;4268120;27;20053;-57
2023/11/05 01:39:11;;;;;;;10.27;2.50;;;12.10;99.90;;;;;;4268197;27;20043;-58
2023/11/05 01:41:13;;;;;;;11.55;3.05;;;12.10;99.90;;;;;;4267663;27;20074;-57
2023/11/05 01:43:16;;;;;;;12.60;3.08;;;12.10;99.90;;;;;;4267803;27;20046;-58
2023/11/05 01:45:18;;;;;;;11.88;2.45;;;12.10;99.90;;;;;;4268096;27;20047;-57
2023/11/05 01:47:20;;;;;;;9.73;2.50;;;12.10;99.90;;;;;;4268034;27;20047;-57
2023/11/05 01:49:24;;;;;;;13.20;2.78;;;12.10;99.90;;;;;;4267829;27;20062;-58
2023/11/05 01:51:27;;;;;;;8.80;2.50;;;12.10;99.90;;;;;;4268062;27;20069;-58
2023/11/05 01:53:29;;;;;;;9.25;2.53;;;12.10;99.90;;;;;;4267682;27;20039;-58
2023/11/05 01:55:33;;;;;;;13.45;2.83;;;12.20;99.90;;;;;;4267312;27;20053;-58
2023/11/05 01:57:35;;;;;;;10.68;2.30;;;12.10;99.90;;;;;;4268034;27;20503;-58
2023/11/05 01:59:38;;;;;;;10.63;2.20;;;12.10;99.90;;;;;;4267643;27;20122;-57
2023/11/05 02:01:42;;;;;;;9.50;2.25;;;12.10;99.90;;;;;;4267877;27;20472;-58
2023/11/05 02:03:45;;;;;;;11.45;2.40;;;12.00;99.90;;;;;;4268002;27;20042;-57
2023/11/05 02:05:48;;;;;;;10.07;2.33;;;12.00;99.90;;;;;;4267593;27;20488;-57
2023/11/05 02:07:50;;;;;;;9.32;2.03;;;12.00;99.90;;;;;;4249196;27;20054;-60
2023/11/05 02:09:52;;;;;;;13.40;2.75;;;12.00;99.90;;;;;;4267181;27;20475;-58
2023/11/05 02:11:54;;;;;;;9.00;2.05;;;12.10;99.90;;;;;;4267326;27;20070;-57
2023/11/05 02:13:57;;;;;;;13.60;2.95;;;12.00;99.90;;;;;;4267475;27;20524;-57
2023/11/05 02:15:59;;;;;;;9.82;2.00;;;12.00;99.90;;;;;;4267225;27;20045;-56
2023/11/05 02:18:01;;;;;;;7.80;2.05;;;12.00;99.90;;;;;;4248712;27;20043;-56
2023/11/05 02:20:06;;;;;;;9.27;2.45;;;12.10;99.90;;;;;;4249044;27;20488;-57
2023/11/05 02:22:14;;;;;;;11.70;2.33;;;12.10;99.90;;;;;;4267102;27;20414;-55
2023/11/05 02:24:18;;;;;;;8.90;2.17;;;12.10;99.90;;;;;;4266874;27;20043;-54
2023/11/05 02:26:20;;;;;;;11.15;1.80;;;12.00;99.90;;;;;;4267443;27;20077;-55
2023/11/05 02:28:22;;;;;;;9.50;2.20;;;12.00;99.90;;;;;;4267859;27;20047;-55
2023/11/05 02:30:25;;;;;;;9.43;2.28;;;12.10;99.90;;;;;;4267555;27;20043;-56
2023/11/05 02:32:27;;;;;;;7.85;2.85;;;12.00;99.90;;;;;;4267150;27;20503;-55
2023/11/05 02:34:29;;;;;;;7.97;1.63;;;12.00;99.90;;;;;;4267486;27;20465;-55
2023/11/05 02:36:31;;;;;;;7.95;2.00;;;12.00;99.90;;;;;;4267088;27;20129;-55
2023/11/05 02:38:33;;;;;;;4.95;1.55;;;12.10;99.90;;;;;;4266994;27;20047;-55
2023/11/05 02:40:37;;;;;;;9.25;1.92;;;12.00;99.90;;;;;;4266684;27;20050;-54
2023/11/05 02:42:39;;;;;;;9.70;2.38;;;12.00;99.90;;;;;;4248290;27;20059;-55
2023/11/05 02:44:41;;;;;;;8.20;1.85;;;12.00;99.90;;;;;;4266995;27;20452;-55
2023/11/05 02:46:43;;;;;;;8.43;1.65;;;12.00;99.90;;;;;;4266234;27;20111;-57
2023/11/05 02:48:46;;;;;;;9.63;1.67;;;12.00;99.90;;;;;;4266497;27;20038;-56
2023/11/05 02:50:48;;;;;;;9.20;1.55;;;12.10;99.90;;;;;;4266796;27;20086;-55
2023/11/05 02:52:50;;;;;;;6.15;1.40;;;12.10;99.90;;;;;;4266828;27;20402;-56
2023/11/05 02:54:52;;;;;;;4.97;1.67;;;12.10;99.90;;;;;;4266416;27;20074;-56
2023/11/05 02:56:56;;;;;;;7.50;1.75;;;12.20;99.90;;;;;;4266740;27;20042;-55
2023/11/05 02:58:58;;;;;;;8.07;2.13;;;12.20;99.90;;;;;;4266756;27;20061;-55
2023/11/05 03:01:00;;;;;;;6.43;1.45;;;12.20;99.90;;;;;;4267163;27;20447;-55
2023/11/05 03:03:02;;;;;;;5.28;1.20;;;12.20;99.90;;;;;;4266793;27;20046;-55
2023/11/05 03:05:05;;;;;;;6.70;1.40;;;12.20;99.90;;;;;;4266560;27;20074;-55
2023/11/05 03:07:07;;;;;;;7.28;1.85;;;12.10;99.90;;;;;;4266728;27;20050;-55
2023/11/05 03:09:09;;;;;;;6.88;1.50;;;12.10;99.90;;;;;;4266133;27;20053;-56
2023/11/05 03:11:12;;;;;;;6.00;1.80;;;12.10;99.90;;;;;;4266499;27;20051;-59
2023/11/05 03:13:15;;;;;;;5.80;1.23;;;12.10;99.90;;;;;;4266398;27;20050;-56
2023/11/05 03:15:17;;;;;;;7.55;2.13;;;12.20;99.90;;;;;;4266812;27;20046;-55
2023/11/05 03:17:19;;;;;;;5.30;1.40;;;12.10;99.90;;;;;;4266623;27;20042;-56
2023/11/05 03:19:22;;;;;;;14.50;2.15;;;12.10;99.90;;;;;;4267511;27;20039;-56
2023/11/05 03:21:25;;;;;;;8.50;1.77;;;12.10;99.90;;;;;;4267133;27;20121;-56
2023/11/05 03:23:27;;;;;;;6.97;1.98;;;12.10;99.90;;;;;;4266161;27;20072;-56
2023/11/05 03:25:29;;;;;;;6.40;1.30;;;12.10;99.90;;;;;;4266862;27;20415;-56
2023/11/05 03:27:32;;;;;;;6.40;1.65;;;12.10;99.90;;;;;;4266606;27;20046;-55
2023/11/05 03:29:35;;;;;;;8.30;1.70;;;12.10;99.90;;;;;;4266217;27;20072;-55
2023/11/05 03:31:38;;;;;;;9.68;1.55;;;12.20;99.90;;;;;;4266796;27;20042;-55
2023/11/05 03:33:40;;;;;;;10.40;1.63;;;12.10;99.90;;;;;;4265815;27;20043;-55
2023/11/05 03:35:42;;;;;;;10.43;1.85;;;12.20;99.90;;;;;;4266219;27;20411;-55
2023/11/05 03:37:44;;;;;;;7.20;1.67;;;12.20;99.90;;;;;;4265757;27;20047;-55
2023/11/05 03:39:48;;;;;;;9.00;2.03;;;12.20;99.90;;;;;;4247910;27;20100;-55
2023/11/05 03:41:50;;;;;;;9.57;1.67;;;12.20;99.90;;;;;;4265952;27;20059;-55
2023/11/05 03:43:53;;;;;;;7.18;2.00;;;12.20;99.90;;;;;;4265943;27;20047;-56
2023/11/05 03:45:56;;;;;;;6.80;1.65;;;12.20;99.90;;;;;;4266050;27;20051;-56
2023/11/05 03:47:58;;;;;;;8.60;1.83;;;12.20;99.90;;;;;;4265743;27;20401;-53
2023/11/05 03:50:01;;;;;;;6.43;1.45;;;12.20;99.90;;;;;;4265961;27;20440;-56
2023/11/05 03:52:03;;;;;;;8.45;1.55;;;12.20;99.90;;;;;;4265639;27;20406;-55
2023/11/05 03:54:06;;;;;;;11.65;2.25;;;12.20;99.90;;;;;;4265939;27;20529;-55
2023/11/05 03:56:09;;;;;;;7.32;1.77;;;12.20;99.90;;;;;;4265663;27;20046;-54
2023/11/05 03:58:11;;;;;;;9.05;2.35;;;12.30;99.90;;;;;;4265652;27;20125;-53
2023/11/05 04:00:14;;;;;;;7.18;1.98;;;12.30;99.90;;;;;;4265687;27;20061;-56
2023/11/05 04:02:17;;;;;;;8.57;2.13;;;12.30;99.90;;;;;;4265759;27;20122;-55
2023/11/05 04:04:20;;;;;;;6.30;1.60;;;12.30;99.90;;;;;;4265757;27;20121;-56
2023/11/05 04:06:22;;;;;;;8.85;1.95;;;12.30;99.90;;;;;;4265857;27;20046;-57
2023/11/05 04:08:26;;;;;;;9.90;1.67;;;12.40;99.90;;;;;;4266706;27;20100;-57
2023/11/05 04:10:28;;;;;;;9.70;1.73;;;12.30;99.90;;;;;;4268598;27;20056;-56
2023/11/05 04:12:34;;;;;;;6.63;1.73;;;12.40;99.90;;;;;;4250042;27;20061;-56
2023/11/05 04:14:36;;;;;;;7.05;1.83;;;12.30;99.90;;;;;;4267519;27;20042;-56
2023/11/05 04:16:38;;;;;;;9.75;2.17;;;12.30;99.90;;;;;;4266295;27;20057;-57
2023/11/05 04:18:44;;;;;;;10.93;2.17;;;12.30;99.90;;;;;;4266071;27;20308;-56
2023/11/05 04:20:48;;;;;;;6.20;1.58;;;12.30;99.90;;;;;;4265414;27;20051;-60
2023/11/05 04:22:50;;;;;;;9.73;1.80;;;12.40;99.90;;;;;;4265444;27;20079;-56
2023/11/05 04:24:52;;;;;;;9.27;1.88;;;12.40;99.90;;;;;;4265681;27;20046;-55
2023/11/05 04:26:54;;;;;;;7.70;1.58;;;12.50;99.90;;;;;;4265531;27;20050;-55
2023/11/05 04:28:56;;;;;;;9.55;1.85;;;12.40;99.90;;;;;;4247346;27;20108;-56
2023/11/05 04:30:58;;;;;;;7.10;1.73;;;12.50;99.90;;;;;;4265476;27;20078;-55
2023/11/05 04:33:00;;;;;;;5.45;1.38;;;12.50;99.90;;;;;;4265210;27;20102;-57
2023/11/05 04:35:04;;;;;;;7.57;1.85;;;12.50;99.90;;;;;;4264857;27;20065;-56
2023/11/05 04:37:07;;;;;;;12.52;1.88;;;12.50;99.90;;;;;;4265263;27;20047;-56
2023/11/05 04:39:09;;;;;;;11.13;2.28;;;12.40;99.90;;;;;;4265269;27;20047;-56
2023/11/05 04:41:11;;;;;;;9.65;2.30;;;12.50;99.90;;;;;;4265140;27;20472;-55
2023/11/05 04:43:13;;;;;;;4.78;1.60;;;12.50;99.90;;;;;;4264829;27;20050;-56
2023/11/05 04:45:15;;;;;;;7.57;1.65;;;12.40;99.90;;;;;;4246739;27;20050;-55
2023/11/05 04:47:17;;;;;;;7.75;1.95;;;12.50;99.90;;;;;;4264940;27;20122;-55
2023/11/05 04:49:19;;;;;;;9.57;1.75;;;12.50;99.90;;;;;;4264704;27;20495;-54
2023/11/05 04:51:24;;;;;;;6.20;1.45;;;12.50;99.90;;;;;;4265064;27;20118;-55
2023/11/05 04:53:28;;;;;;;5.47;1.35;;;12.50;99.90;;;;;;4264880;27;20043;-55
2023/11/05 04:55:30;;;;;;;4.90;1.50;;;12.50;99.90;;;;;;4264255;27;20046;-55
2023/11/05 04:57:32;;;;;;;6.80;1.67;;;12.50;99.90;;;;;;4264785;27;20047;-56
2023/11/05 04:59:34;;;;;;;6.22;1.30;;;12.60;99.90;;;;;;4246762;27;20090;-56
2023/11/05 05:01:37;;;;;;;5.78;1.63;;;12.50;99.90;;;;;;4265065;27;20039;-56
2023/11/05 05:03:39;;;;;;;7.13;1.70;;;12.60;99.90;;;;;;4264724;27;20043;-56
2023/11/05 05:05:41;;;;;;;8.48;1.60;;;12.50;99.90;;;;;;4264748;27;20103;-56
2023/11/05 05:07:44;;;;;;;6.78;1.40;;;12.50;99.90;;;;;;4264930;27;20436;-56
2023/11/05 05:09:47;;;;;;;6.40;1.85;;;12.60;99.90;;;;;;4264486;27;20054;-55
2023/11/05 05:11:49;;;;;;;5.72;1.48;;;12.70;99.90;;;;;;4264987;27;20052;-55
2023/11/05 05:13:51;;;;;;;4.93;1.20;;;12.60;99.90;;;;;;4264694;27;20117;-55
2023/11/05 05:15:53;;;;;;;5.18;1.10;;;12.60;99.90;;;;;;4264840;27;20051;-55
2023/11/05 05:17:55;;;;;;;5.75;1.40;;;12.50;99.90;;;;;;4264497;27;20046;-56
2023/11/05 05:19:57;;;;;;;6.55;1.27;;;12.60;99.90;;;;;;4264425;27;20045;-56
2023/11/05 05:22:02;;;;;;;7.30;1.55;;;12.60;99.90;;;;;;4264728;27;20049;-56
2023/11/05 05:24:06;;;;;;;7.20;1.35;;;12.60;99.90;;;;;;4264843;27;20046;-56
2023/11/05 05:26:09;;;;;;;3.92;1.00;;;12.50;99.90;;;;;;4246390;28;20047;-56
2023/11/05 05:28:11;;;;;;;7.93;1.20;;;12.60;99.90;;;;;;4264668;27;20047;-56
2023/11/05 05:30:16;;;;;;;5.57;1.10;;;12.50;99.90;;;;;;4264915;27;20050;-56
2023/11/05 05:32:18;;;;;;;6.28;1.45;;;12.50;99.90;;;;;;4264698;27;20508;-55
2023/11/05 05:34:23;;;;;;;6.35;1.20;;;12.50;99.90;;;;;;4264709;27;20043;-55
2023/11/05 05:36:25;;;;;;;6.68;1.23;;;12.50;99.90;;;;;;4264655;27;20114;-55
2023/11/05 05:38:28;;;;;;;5.60;1.30;;;12.50;99.90;;;;;;4264857;27;20468;-55
2023/11/05 05:40:31;;;;;;;5.13;1.38;;;12.50;99.90;;;;;;4264772;27;20046;-55
2023/11/05 05:42:33;;;;;;;6.13;1.30;;;12.60;99.90;;;;;;4264571;27;20089;-55
2023/11/05 05:44:37;;;;;;;5.15;1.45;;;12.50;99.90;;;;;;4264504;27;20051;-55
2023/11/05 05:46:39;;;;;;;6.22;1.15;;;12.50;99.90;;;;;;4264715;27;20050;-55
2023/11/05 05:48:42;;;;;;;5.90;1.30;;;12.50;99.90;;;;;;4245779;28;20393;-56
2023/11/05 05:50:44;;;;;;;5.68;1.23;;;12.50;99.90;;;;;;4264848;27;20050;-56
2023/11/05 05:52:46;;;;;;;4.57;1.35;;;12.50;99.90;;;;;;4264501;27;20047;-56
2023/11/05 05:54:48;;;;;;;4.55;0.75;;;12.50;99.90;;;;;;4264653;27;20049;-56
2023/11/05 05:56:52;;;;;;;5.22;1.25;;;12.50;99.90;;;;;;4264457;27;20043;-56
2023/11/05 05:58:54;;;;;;;5.85;2.10;;;12.50;99.90;;;;;;4264637;27;20544;-54
2023/11/05 06:00:56;;;;;;;8.07;2.67;;;12.50;99.90;;;;;;4264573;27;20047;-55
2023/11/05 06:02:58;;;;;;;4.45;1.38;;;12.60;99.90;;;;;;4264243;27;20057;-55
2023/11/05 06:05:00;;;;;;;3.88;1.25;;;12.50;99.90;;;;;;4264568;27;20051;-56
2023/11/05 06:07:02;;;;;;;4.20;1.52;;;12.60;99.90;;;;;;4264534;27;20046;-55
2023/11/05 06:09:11;;;;;;;4.03;1.38;;;12.50;99.90;;;;;;4264659;27;20092;-56
2023/11/05 06:11:13;;;;;;;4.65;1.33;;;12.60;99.90;;;;;;4264544;27;20053;-56
2023/11/05 06:13:17;;;;;;;4.45;1.48;;;12.60;99.90;;;;;;4264431;27;20053;-55
2023/11/05 06:15:19;;;;;;;5.10;1.17;;;12.60;99.90;;;;;;4264344;27;20461;-55
2023/11/05 06:17:22;;;;;;;4.35;1.15;;;12.60;99.90;;;;;;4264073;27;20510;-56
2023/11/05 06:19:24;;;;;;;6.13;1.33;;;12.60;99.90;;;;;;4264721;27;20480;-55
2023/11/05 06:21:26;;;;;;;5.53;0.95;;;12.60;99.90;;;;;;4264455;27;20039;-56
2023/11/05 06:23:28;;;;;;;4.95;1.08;;;12.60;99.90;;;;;;4266946;27;20038;-56
2023/11/05 06:25:30;;;;;;;6.70;1.20;;;12.50;99.90;;;;;;4267294;27;20055;-58
2023/11/05 06:27:32;;;;;;;11.30;2.50;;;12.50;99.90;;;;;;4248938;27;20092;-58
2023/11/05 06:29:36;;;;;;;3.00;1.10;;;12.50;99.90;;;;;;4267824;27;20541;-58
2023/11/05 06:31:38;;;;;;;6.50;1.30;;;12.50;99.90;;;;;;4266986;27;20408;-58
2023/11/05 06:33:40;;;;;;;5.35;1.23;;;12.40;99.90;;;;;;4267771;27;20054;-57
2023/11/05 06:35:42;;;;;;;4.32;1.25;;;12.40;99.90;;;;;;4267331;27;20491;-58
2023/11/05 06:37:44;;;;;;;5.63;1.33;;;12.40;99.90;;;;;;4267409;27;20058;-56
2023/11/05 06:39:46;;;;;;;6.43;1.60;;;12.40;99.90;;;;;;4267162;27;20095;-57
2023/11/05 06:41:48;;;;;;;11.85;1.33;;;12.40;99.90;;;;;;4267098;27;20081;-57
2023/11/05 06:43:50;;;;;;;4.80;1.30;;;12.40;99.90;;;;;;4267065;27;20102;-57
2023/11/05 06:45:54;;;;;;;5.32;1.40;;;12.40;99.90;;;;;;4248610;27;20459;-57
2023/11/05 06:47:56;;;;;;;5.45;1.20;;;12.40;99.90;;;;;;4267009;27;20045;-58
2023/11/05 06:49:59;;;;;;;4.05;1.02;;;12.40;99.90;;;;;;4266978;27;20049;-58
2023/11/05 06:52:01;;;;;;;3.47;0.70;;;12.50;99.90;;;;;;4267065;27;20046;-58
2023/11/05 06:54:04;;;;;;;4.82;1.13;;;12.50;99.90;;;;;;4248545;27;20102;-57
2023/11/05 06:56:06;;;;;;;5.38;1.13;;;12.50;99.90;;;;;;4266713;27;20042;-57
2023/11/05 06:58:10;;;;;;;5.90;1.23;;;12.50;99.90;;;;;;4266757;27;20050;-58
2023/11/05 07:00:13;;;;;;;6.25;1.33;;;12.60;99.90;;;;;;4266378;27;20404;-57
2023/11/05 07:02:17;;;;;;;4.85;1.15;;;12.60;99.90;;;;;;4266792;27;20070;-58
2023/11/05 07:04:19;;;;;;;2.78;1.30;;;12.60;99.90;;;;;;4266754;27;20506;-56
2023/11/05 07:06:22;;;;;;;8.27;1.42;;;12.70;99.90;;;;;;4266953;27;20125;-58
2023/11/05 07:08:26;;;;;;;4.55;0.98;;;12.70;99.90;;;;;;4266587;27;20053;-57
2023/11/05 07:10:29;;;;;;;7.50;1.27;;;12.60;99.90;;;;;;4266820;27;20074;-58
2023/11/05 07:12:31;;;;;;;3.53;1.40;;;12.70;99.90;;;;;;4266860;27;20103;-57
2023/11/05 07:14:33;;;;;;;7.13;2.40;;;12.70;99.90;;;;;;4266366;27;20050;-56
2023/11/05 07:16:36;;;;;;;7.13;1.92;;;12.70;99.90;;;;;;4266741;27;20042;-57
2023/11/05 07:18:41;;;;;;;5.60;1.65;;;12.70;99.90;;;;;;4266193;27;20043;-57
2023/11/05 07:20:44;;;;;;;5.28;1.27;;;12.80;99.90;;;;;;4266646;27;20043;-58
2023/11/05 07:22:46;;;;;;;4.40;1.20;;;12.70;99.90;;;;;;4266535;27;20115;-58
2023/11/05 07:24:49;;;;;;;4.50;1.20;;;12.70;99.90;;;;;;4266691;27;20548;-58
2023/11/05 07:26:51;;;;;;;4.50;1.13;;;12.80;99.90;;;;;;4266225;27;20050;-56
2023/11/05 07:28:55;;;;;;;4.90;1.88;;;12.80;99.90;;;;;;4247656;27;20050;-58
2023/11/05 07:30:58;;;;;;;4.65;0.95;;;12.80;99.90;;;;;;4266256;27;20043;-58
2023/11/05 07:33:00;;;;;;;3.92;0.70;;;12.80;99.90;;;;;;4265863;27;20050;-57
2023/11/05 07:35:05;;;;;;;2.90;0.75;;;12.80;99.90;;;;;;4265936;27;20111;-58
2023/11/05 07:37:07;;;;;;;;;;;12.80;99.90;;;;;;4266711;27;20070;-58
2023/11/05 07:39:10;;;;;;;2.92;1.33;;;12.80;99.90;;;;;;4266239;27;20334;-56
2023/11/05 07:41:12;;;;;;;5.22;2.30;;;12.80;99.90;;;;;;4266237;27;20046;-57
2023/11/05 07:43:14;;;;;;;4.25;1.38;;;12.80;99.90;;;;;;4265815;27;20069;-57
2023/11/05 07:45:17;;;;;;;2.58;0.80;;;12.80;99.90;;;;;;4265828;27;20053;-58
2023/11/05 07:47:19;;;;;;;7.40;1.20;;;12.90;99.90;;;;;;4266100;27;20126;-58
2023/11/05 07:49:22;;;;;;;5.57;2.25;;;12.80;99.90;;;;;;4266172;27;20073;-58
2023/11/05 07:51:25;;;;;;;4.85;1.10;;;12.90;99.90;;;;;;4265746;27;20043;-57
2023/11/05 07:53:28;;;;;;;2.92;1.25;;;12.80;99.90;;;;;;4265999;27;20051;-57
2023/11/05 07:55:30;;;;;;;4.18;0.90;;;12.80;99.90;;;;;;4265789;27;20046;-57
2023/11/05 07:57:33;;;;;;;5.47;1.27;;;12.80;99.90;;;;;;4265875;27;20043;-58
2023/11/05 07:59:35;;;;;;;4.60;1.20;;;12.80;99.90;;;;;;4265604;27;20051;-58
2023/11/05 08:01:37;;;;;;;6.93;1.20;;;12.80;99.90;;;;;;4266061;27;20058;-55
2023/11/05 08:03:42;;;;;;;6.05;1.55;;;12.80;99.90;;;;;;4266020;27;20046;-55
2023/11/05 08:05:44;;;;;;;6.30;1.10;;;12.80;99.90;;;;;;4266015;27;20497;-58
2023/11/05 08:07:49;;;;;;;4.85;1.58;;;12.70;99.90;;;;;;4265885;27;20476;-54
2023/11/05 08:09:53;;;;;;;2.88;1.27;;;12.80;99.90;;;;;;4265586;27;20050;-55
2023/11/05 08:11:56;;;;;;;4.97;1.40;;;12.80;99.90;;;;;;4265673;27;20047;-57
2023/11/05 08:14:00;;;;;;;9.10;1.65;;;12.90;99.90;;;;;;4265018;27;20407;-58
2023/11/05 08:16:02;;;;;;;5.88;1.33;;;12.80;99.90;;;;;;4265469;27;20046;-58
2023/11/05 08:18:05;;;;;;;6.80;3.00;;;12.90;99.90;;;;;;4265465;27;20039;-58
2023/11/05 08:20:11;;;;;;;6.63;1.73;;;12.90;99.90;;;;;;4265535;27;20480;-57
2023/11/05 08:22:14;;;;;;;5.60;1.40;;;12.90;99.90;;;;;;4265403;27;20140;-57
2023/11/05 08:24:18;;;;;;;5.70;1.10;;;12.90;99.90;;;;;;4265489;27;20077;-58
2023/11/05 08:26:21;;;;;;;8.75;1.70;;;13.00;99.90;;;;;;4247188;27;20043;-63
2023/11/05 08:28:23;;;;;;;5.80;1.60;;;13.00;99.90;;;;;;4246871;27;20129;-57
2023/11/05 08:30:28;;;;;;;4.53;1.27;;;13.00;99.90;;;;;;4247478;27;20070;-58
2023/11/05 08:32:30;;;;;;;3.58;1.25;;;12.90;99.90;;;;;;4247055;27;20134;-57
2023/11/05 08:34:32;;;;;;;6.18;1.50;;;12.90;99.90;;;;;;4265434;27;20066;-57
2023/11/05 08:36:34;;;;;;;3.97;1.20;;;12.90;99.90;;;;;;4265184;27;20043;-57
2023/11/05 08:38:37;;;;;;;6.57;2.00;;;12.80;99.90;;;;;;4265033;27;20091;-57
2023/11/05 08:40:41;;;;;;;4.85;1.63;;;12.80;99.90;;;;;;4246841;27;20047;-57
2023/11/05 08:42:44;;;;;;;5.60;1.50;;;12.80;99.90;;;;;;4264824;27;20522;-57
2023/11/05 08:44:46;;;;;;;9.10;1.88;;;12.80;99.90;;;;;;4264363;27;20053;-57
2023/11/05 08:46:49;;;;;;;4.82;1.48;;;12.80;99.90;;;;;;4265003;27;20046;-56
2023/11/05 08:48:51;;;;;;;4.93;1.10;;;12.70;99.90;;;;;;4265174;27;20133;-57
2023/11/05 08:50:53;;;;;;;8.50;2.60;;;12.60;99.90;;;;;;4265384;27;20046;-57
2023/11/05 08:52:55;;;;;;;6.38;1.80;;;12.70;99.90;;;;;;4264926;27;20038;-56
2023/11/05 08:54:59;;;;;;;6.05;1.98;;;12.60;99.90;;;;;;4265063;27;20066;-56
2023/11/05 08:57:03;;;;;;;8.90;3.20;;;12.50;99.90;;;;;;4264693;27;20042;-57
2023/11/05 08:59:05;;;;;;;9.70;1.50;;;12.50;99.90;;;;;;4264820;27;20452;-56
2023/11/05 09:01:07;;;;;;;8.27;3.15;;;12.50;99.90;;;;;;4264894;27;20043;-58
2023/11/05 09:03:12;;;;;;;9.30;2.60;;;12.60;99.90;;;;;;4246619;27;20051;-57
2023/11/05 09:05:16;;;;;;;7.55;2.78;;;12.60;99.90;;;;;;4265327;27;20384;-58
2023/11/05 09:07:18;;;;;;;6.97;2.58;;;12.70;99.90;;;;;;4264210;27;20061;-58
2023/11/05 09:09:21;;;;;;;5.68;2.22;;;12.60;99.90;;;;;;4265049;27;20043;-58
2023/11/05 09:11:23;;;;;;;7.68;1.80;;;12.60;99.90;;;;;;4265005;27;20103;-57
2023/11/05 09:13:27;;;;;;;9.77;3.35;;;12.60;99.90;;;;;;4264982;27;20039;-57
2023/11/05 09:15:29;;;;;;;5.15;1.88;;;12.70;99.90;;;;;;4265014;27;20396;-57
2023/11/05 09:17:32;;;;;;;6.75;1.92;;;12.60;99.90;;;;;;4264731;27;20042;-57
2023/11/05 09:19:35;;;;;;;11.05;4.15;;;12.60;99.90;;;;;;4265024;27;20499;-57
2023/11/05 09:21:41;;;;;;;7.05;2.67;;;12.60;99.90;;;;;;4264668;27;20389;-57
2023/11/05 09:23:43;;;;;;;5.10;2.10;;;12.50;99.90;;;;;;4264458;27;20051;-58
2023/11/05 09:25:45;;;;;;;8.50;1.38;;;12.40;99.90;;;;;;4264574;27;20467;-58
2023/11/05 09:27:47;;;;;;;4.97;2.40;;;12.50;99.90;;;;;;4264967;27;20095;-58
2023/11/05 09:29:51;;;;;;;5.85;2.10;;;12.50;99.90;;;;;;4265298;27;20483;-57
2023/11/05 09:31:53;;;;;;;5.47;1.73;;;12.50;99.90;;;;;;4267130;27;20050;-62
2023/11/05 09:33:55;;;;;;;4.40;1.70;;;12.60;99.90;;;;;;4267757;27;20185;-58
2023/11/05 09:35:57;;;;;;;4.95;1.73;;;12.60;99.90;;;;;;4266992;27;20073;-61
2023/11/05 09:38:02;;;;;;;7.15;2.33;;;12.70;99.90;;;;;;4265486;27;20453;-58
2023/11/05 09:40:06;;;;;;;8.10;3.00;;;12.70;99.90;;;;;;4264975;27;20043;-58
2023/11/05 09:42:08;;;;;;;25.88;16.48;;;12.70;99.90;;;;;;4264653;27;20051;-58
2023/11/05 09:44:11;;;;;;;24.58;12.50;;;12.80;99.90;;;;;;4264918;27;20396;-58
2023/11/05 09:46:14;;;;;;;8.00;4.18;;;12.80;99.90;;;;;;4264778;27;20050;-60
2023/11/05 09:48:17;;;;;;;6.28;2.88;;;12.80;99.90;;;;;;4264741;27;20391;-58
2023/11/05 09:50:20;;;;;;;6.32;2.13;;;12.80;99.90;;;;;;4246302;27;20071;-57
2023/11/05 09:52:22;;;;;;;5.78;2.25;;;12.90;99.90;;;;;;4264653;27;20081;-58
2023/11/05 09:54:24;;;;;;;6.60;2.22;;;12.90;99.90;;;;;;4264713;27;20043;-57
2023/11/05 09:56:26;;;;;;;7.15;2.20;;;13.00;99.90;;;;;;4265745;27;20043;-58
2023/11/05 09:58:29;;;;;;;7.47;1.90;;;13.10;99.90;;;;;;4268788;27;20122;-62
2023/11/05 10:00:32;;;;;;;9.48;2.47;;;13.10;99.90;;;;;;4270738;27;20042;-58
2023/11/05 10:02:56;;;;;;;3.65;1.88;;;13.10;99.90;;;;;;4271915;27;20065;-58
2023/11/05 10:04:59;;;;;;;5.47;2.17;;;13.10;99.90;;;;;;4268850;27;20039;-59
2023/11/05 10:07:01;;;;;;;5.57;1.88;;;13.10;99.90;;;;;;4267870;27;20414;-57
2023/11/05 10:09:07;;;;;;;11.40;4.07;;;13.20;99.90;;;;;;4267283;27;20503;-58
2023/11/05 10:11:09;;;;;;;10.50;2.83;;;13.20;99.90;;;;;;4267558;27;20296;-57
2023/11/05 10:13:12;;;;;;;7.43;2.47;;;13.10;99.90;;;;;;4267535;27;20096;-57
2023/11/05 10:15:15;;;;;;;5.15;1.75;;;13.10;99.90;;;;;;4267661;27;20046;-58
2023/11/05 10:17:17;;;;;;;9.52;4.25;;;13.10;99.90;;;;;;4267372;27;20122;-57
2023/11/05 10:19:22;;;;;;;6.63;1.70;;;13.20;99.90;;;;;;4250556;27;20050;-57
2023/11/05 10:21:34;;;;;;;5.90;1.65;;;13.10;99.90;;;;;;4250411;27;20135;-58
2023/11/05 10:23:52;;;;;;;6.32;1.83;;;13.10;99.90;;;;;;4249870;27;20096;-58
2023/11/05 10:25:54;;;;;;;5.50;1.50;;;13.10;99.90;;;;;;4250309;27;20051;-56
2023/11/05 10:27:58;;;;;;;18.92;6.82;;;13.20;99.90;;;;;;4250261;27;20043;-57
2023/11/05 10:30:02;;;;;;;12.07;2.33;;;13.30;99.90;;;;;;4250430;27;20054;-58
2023/11/05 10:32:05;;;;;;;7.63;2.90;;;13.30;99.90;;;;;;4250200;27;20044;-57
2023/11/05 10:34:08;;;;;;;5.07;1.90;;;13.30;99.90;;;;;;4250115;27;20066;-56
2023/11/05 10:36:12;;;;;;;6.90;2.75;;;13.30;99.90;;;;;;4250197;27;20477;-58
2023/11/05 10:38:18;;;;;;;12.68;7.32;;;13.40;99.90;;;;;;4249799;27;20074;-57